Time;durP1;ratioP1;P1;durP2;ratioP2;P2;SDS_P1;SDS_P2;PMS_P1;PMS_P2;Temp;Humidity;BMP_temperature;BMP_pressure;BME280_temperature;BME280_humidity;BME280_pressure;Samples;Min_cycle;Max_cycle;Signal;HPM_P1;HPM_P2
2024/02/22 00:01:35;;;;;;;;;;;16.20;70.40;;;;;;5035720;28;19913;-76
2024/02/22 00:04:00;;;;;;;;;;;16.20;71.10;;;;;;5035570;28;19960;-76
2024/02/22 00:06:26;;;;;;;;;;;16.30;70.60;;;;;;5018409;28;20342;-75
2024/02/22 00:08:52;;;;;;;;;;;16.20;71.10;;;;;;5035906;28;19913;-76
2024/02/22 00:11:17;;;;;;;;;;;16.30;71.00;;;;;;5035852;28;19953;-76
2024/02/22 00:13:43;;;;;;;;;;;16.20;70.80;;;;;;5035560;28;20311;-76
2024/02/22 00:16:08;;;;;;;;;;;16.50;71.20;;;;;;5035865;28;19909;-76
2024/02/22 00:18:34;;;;;;;;;;;16.30;70.60;;;;;;5035358;28;20318;-76
2024/02/22 00:21:00;;;;;;;;;;;16.30;71.00;;;;;;5035431;28;20196;-76
2024/02/22 00:23:26;;;;;;;;;;;16.30;70.90;;;;;;5035354;28;19915;-76
2024/02/22 00:25:51;;;;;;;;;;;16.30;71.20;;;;;;5035264;28;19913;-76
2024/02/22 00:28:17;;;;;;;;;;;16.20;70.90;;;;;;5034965;28;19916;-76
2024/02/22 00:30:43;;;;;;;;;;;16.20;71.10;;;;;;5034901;28;19909;-76
2024/02/22 00:33:08;;;;;;;;;;;16.30;70.70;;;;;;5035732;28;19909;-76
2024/02/22 00:35:34;;;;;;;;;;;16.20;71.60;;;;;;5035375;28;19909;-76
2024/02/22 00:37:59;;;;;;;;;;;16.20;71.10;;;;;;5035055;28;19921;-76
2024/02/22 00:40:25;;;;;;;;;;;16.20;71.00;;;;;;5035074;28;19959;-76
2024/02/22 00:42:50;;;;;;;;;;;16.20;70.90;;;;;;5035311;28;20364;-76
2024/02/22 00:45:16;;;;;;;;;;;16.20;71.20;;;;;;5035296;28;20298;-76
2024/02/22 00:47:41;;;;;;;;;;;16.20;71.00;;;;;;5034969;28;19958;-76
2024/02/22 00:50:08;;;;;;;;;;;16.30;71.30;;;;;;5034885;28;20299;-76
2024/02/22 00:52:33;;;;;;;;;;;16.30;70.20;;;;;;5033609;28;19913;-76
2024/02/22 00:54:59;;;;;;;;;;;16.20;71.00;;;;;;5034778;28;19916;-77
2024/02/22 00:57:24;;;;;;;;;;;16.30;71.40;;;;;;5034973;28;19917;-76
2024/02/22 00:59:50;;;;;;;;;;;16.30;71.30;;;;;;5034643;28;19909;-76
2024/02/22 01:02:15;;;;;;;;;;;16.30;70.80;;;;;;5035022;28;19929;-75
2024/02/22 01:04:42;;;;;;;;;;;16.30;71.30;;;;;;5034574;28;19921;-76
2024/02/22 01:07:08;;;;;;;;;;;16.30;71.30;;;;;;5034856;28;19999;-76
2024/02/22 01:09:33;;;;;;;;;;;16.20;71.30;;;;;;5034458;28;19948;-76
2024/02/22 01:11:59;;;;;;;;;;;16.20;71.40;;;;;;5034464;28;19909;-76
2024/02/22 01:14:24;;;;;;;;;;;16.50;71.10;;;;;;5034615;28;19917;-76
2024/02/22 01:16:50;;;;;;;;;;;16.30;71.30;;;;;;5034312;28;19913;-76
2024/02/22 01:19:16;;;;;;;;;;;16.20;71.20;;;;;;5034347;28;19915;-76
2024/02/22 01:21:42;;;;;;;;;;;16.20;71.10;;;;;;5034545;28;19920;-76
2024/02/22 01:24:08;;;;;;;;;;;16.20;71.40;;;;;;5034517;28;19909;-76
2024/02/22 01:26:33;;;;;;;;;;;16.20;71.10;;;;;;5034151;28;19909;-76
2024/02/22 01:28:59;;;;;;;;;;;16.20;71.40;;;;;;5034147;28;20072;-76
2024/02/22 01:31:24;;;;;;;;;;;16.20;71.20;;;;;;5034635;28;19914;-75
2024/02/22 01:33:50;;;;;;;;;;;16.30;71.30;;;;;;5034049;28;20441;-75
2024/02/22 01:36:16;;;;;;;;;;;16.20;71.30;;;;;;5034008;28;19909;-76
2024/02/22 01:38:41;;;;;;;;;;;16.30;71.30;;;;;;5033890;28;19921;-76
2024/02/22 01:41:07;;;;;;;;;;;16.30;71.20;;;;;;5033980;28;19913;-76
2024/02/22 01:43:34;;;;;;;;;;;16.30;71.50;;;;;;5034009;28;20009;-76
2024/02/22 01:46:00;;;;;;;;;;;16.20;71.20;;;;;;5033858;28;19909;-76
2024/02/22 01:48:26;;;;;;;;;;;16.20;71.60;;;;;;5033936;28;19952;-76
2024/02/22 01:50:53;;;;;;;;;;;16.20;71.40;;;;;;5033793;28;19948;-76
2024/02/22 01:53:20;;;;;;;;;;;16.20;71.30;;;;;;5033678;28;19909;-76
2024/02/22 01:55:46;;;;;;;;;;;16.20;71.60;;;;;;5033716;28;19969;-76
2024/02/22 01:58:12;;;;;;;;;;;16.20;71.40;;;;;;5015754;28;20388;-75
2024/02/22 02:00:37;;;;;;;;;;;16.30;71.80;;;;;;5034112;28;19916;-75
2024/02/22 02:03:05;;;;;;;;;;;16.30;71.10;;;;;;5033032;28;19921;-75
2024/02/22 02:05:30;;;;;;;;;;;16.20;71.20;;;;;;5033533;28;19916;-75
2024/02/22 02:07:56;;;;;;;;;;;16.20;71.60;;;;;;5033375;28;20375;-75
2024/02/22 02:10:21;;;;;;;;;;;16.30;71.50;;;;;;5033400;28;19913;-75
2024/02/22 02:12:47;;;;;;;;;;;16.30;71.70;;;;;;5033492;28;20309;-71
2024/02/22 02:15:13;;;;;;;;;;;16.30;71.60;;;;;;5033258;28;19909;-71
2024/02/22 02:17:40;;;;;;;;;;;16.20;71.70;;;;;;5033184;28;19918;-71
2024/02/22 02:20:07;;;;;;;;;;;16.30;71.60;;;;;;5033164;28;19917;-70
2024/02/22 02:22:47;;;;;;;;;;;16.40;69.30;;;;;;5033415;28;19916;-71
2024/02/22 02:25:13;;;;;;;;;;;16.30;67.40;;;;;;5033410;28;20260;-71
2024/02/22 02:27:38;;;;;;;;;;;16.70;72.00;;;;;;5033646;28;20007;-71
2024/02/22 02:30:05;;;;;;;;;;;16.50;71.80;;;;;;5033083;28;19999;-71
2024/02/22 02:32:30;;;;;;;;;;;16.30;70.90;;;;;;5033111;28;19909;-71
2024/02/22 02:34:56;;;;;;;;;;;16.40;71.80;;;;;;5033272;28;20402;-71
2024/02/22 02:37:21;;;;;;;;;;;16.40;71.70;;;;;;5032903;28;19921;-71
2024/02/22 02:39:47;;;;;;;;;;;16.50;71.60;;;;;;5032977;28;19909;-71
2024/02/22 02:42:13;;;;;;;;;;;16.30;71.70;;;;;;5032820;28;19952;-71
2024/02/22 02:44:38;;;;;;;;;;;16.40;71.90;;;;;;5032848;28;19909;-71
2024/02/22 02:47:06;;;;;;;;;;;16.30;71.70;;;;;;5032686;28;19957;-71
2024/02/22 02:49:32;;;;;;;;;;;16.40;71.00;;;;;;5032825;28;20343;-71
2024/02/22 02:51:57;;;;;;;;;;;16.40;71.60;;;;;;5032694;28;19909;-71
2024/02/22 02:54:23;;;;;;;;;;;16.30;71.60;;;;;;5032823;28;19913;-71
2024/02/22 02:56:48;;;;;;;;;;;16.50;71.70;;;;;;5032983;28;19913;-71
2024/02/22 02:59:16;;;;;;;;;;;16.40;71.60;;;;;;5032542;28;19909;-71
2024/02/22 03:01:48;;;;;;;;;;;16.40;71.20;;;;;;5032609;28;19909;-72
2024/02/22 03:04:14;;;;;;;;;;;16.40;67.30;;;;;;5032418;28;19921;-71
2024/02/22 03:06:40;;;;;;;;;;;16.40;71.80;;;;;;5032695;28;19909;-71
2024/02/22 03:09:06;;;;;;;;;;;16.40;71.60;;;;;;5032561;28;19955;-72
2024/02/22 03:11:31;;;;;;;;;;;16.40;71.80;;;;;;5032456;28;19997;-72
2024/02/22 03:13:57;;;;;;;;;;;16.40;71.50;;;;;;5032422;28;19909;-71
2024/02/22 03:16:24;;;;;;;;;;;16.40;71.50;;;;;;5032045;28;20363;-72
2024/02/22 03:18:51;;;;;;;;;;;16.40;71.70;;;;;;5032416;28;20304;-71
2024/02/22 03:21:17;;;;;;;;;;;16.50;71.50;;;;;;5032265;28;19916;-71
2024/02/22 03:23:43;;;;;;;;;;;16.30;71.60;;;;;;5032322;28;20319;-71
2024/02/22 03:26:09;;;;;;;;;;;16.50;71.60;;;;;;5033082;28;19909;-71
2024/02/22 03:28:34;;;;;;;;;;;16.40;71.40;;;;;;5032282;28;19909;-71
2024/02/22 03:31:00;;;;;;;;;;;16.30;71.60;;;;;;5032284;28;20292;-71
2024/02/22 03:33:27;;;;;;;;;;;16.40;71.50;;;;;;5032215;28;20004;-72
2024/02/22 03:35:53;;;;;;;;;;;16.40;71.50;;;;;;5032289;28;19916;-72
2024/02/22 03:38:19;;;;;;;;;;;16.40;71.60;;;;;;5032376;28;19917;-72
2024/02/22 03:40:45;;;;;;;;;;;16.40;71.40;;;;;;5032161;28;19935;-71
2024/02/22 03:43:10;;;;;;;;;;;16.40;71.50;;;;;;5032153;28;20356;-71
2024/02/22 03:45:36;;;;;;;;;;;16.40;71.50;;;;;;5032090;28;19909;-71
2024/02/22 03:48:01;;;;;;;;;;;16.40;71.60;;;;;;5032130;28;20047;-71
2024/02/22 03:50:27;;;;;;;;;;;16.30;71.40;;;;;;5032341;28;19909;-71
2024/02/22 03:52:52;;;;;;;;;;;16.40;71.00;;;;;;5032673;28;19909;-71
2024/02/22 03:55:17;;;;;;;;;;;16.40;71.60;;;;;;5032038;28;19961;-71
2024/02/22 03:57:43;;;;;;;;;;;16.40;71.50;;;;;;5031945;28;19924;-71
2024/02/22 04:00:09;;;;;;;;;;;16.40;71.40;;;;;;5032092;28;20440;-71
2024/02/22 04:02:34;;;;;;;;;;;16.40;70.90;;;;;;5031867;28;19968;-71
2024/02/22 04:05:00;;;;;;;;;;;16.40;71.50;;;;;;5032024;28;20368;-71
2024/02/22 04:07:26;;;;;;;;;;;16.30;71.20;;;;;;5031912;28;19913;-71
2024/02/22 04:09:52;;;;;;;;;;;16.30;71.40;;;;;;5031913;28;19913;-71
2024/02/22 04:12:18;;;;;;;;;;;16.40;71.30;;;;;;5031779;28;19909;-71
2024/02/22 04:14:45;;;;;;;;;;;16.40;70.60;;;;;;5030897;28;21513;-72
2024/02/22 04:17:11;;;;;;;;;;;16.30;71.30;;;;;;5031653;28;19975;-71
2024/02/22 04:19:36;;;;;;;;;;;16.30;71.20;;;;;;5031656;28;20279;-71
2024/02/22 04:22:02;;;;;;;;;;;16.40;71.30;;;;;;5032183;28;20020;-71
2024/02/22 04:24:28;;;;;;;;;;;16.40;71.00;;;;;;5031658;28;19957;-72
2024/02/22 04:26:54;;;;;;;;;;;16.30;71.40;;;;;;5033639;28;19941;-71
2024/02/22 04:29:20;;;;;;;;;;;16.30;71.20;;;;;;5035511;28;19909;-71
2024/02/22 04:31:45;;;;;;;;;;;16.10;71.10;;;;;;5035146;28;19954;-71
2024/02/22 04:34:11;;;;;;;;;;;16.30;71.40;;;;;;5035324;28;19913;-71
2024/02/22 04:36:38;;;;;;;;;;;16.40;71.30;;;;;;5035261;28;20000;-72
2024/02/22 04:39:04;;;;;;;;;;;16.40;71.40;;;;;;5035242;28;19920;-71
2024/02/22 04:41:29;;;;;;;;;;;16.30;71.10;;;;;;5034936;28;19909;-71
2024/02/22 04:43:55;;;;;;;;;;;16.30;71.20;;;;;;5034912;28;19966;-71
2024/02/22 04:46:20;;;;;;;;;;;16.30;71.50;;;;;;5034931;28;20356;-71
2024/02/22 04:48:46;;;;;;;;;;;16.30;71.40;;;;;;5034904;28;19909;-71
2024/02/22 04:51:11;;;;;;;;;;;16.40;71.30;;;;;;5035325;28;19913;-71
2024/02/22 04:53:37;;;;;;;;;;;16.40;71.50;;;;;;5034719;28;19909;-72
2024/02/22 04:56:03;;;;;;;;;;;16.30;71.50;;;;;;5034755;28;19959;-72
2024/02/22 04:58:28;;;;;;;;;;;16.40;71.10;;;;;;5034626;28;19917;-71
2024/02/22 05:00:54;;;;;;;;;;;16.40;71.60;;;;;;5034711;28;20291;-71
2024/02/22 05:03:19;;;;;;;;;;;16.40;71.00;;;;;;5034398;28;19928;-71
2024/02/22 05:05:45;;;;;;;;;;;16.40;71.80;;;;;;5034488;28;19909;-71
2024/02/22 05:08:10;;;;;;;;;;;16.10;71.50;;;;;;5034468;28;19917;-71
2024/02/22 05:10:36;;;;;;;;;;;16.30;71.50;;;;;;5034658;28;19916;-71
2024/02/22 05:13:01;;;;;;;;;;;16.40;71.70;;;;;;5034342;28;19913;-71
2024/02/22 05:15:27;;;;;;;;;;;16.40;71.70;;;;;;5034645;28;19910;-71
2024/02/22 05:17:53;;;;;;;;;;;16.30;71.90;;;;;;5034705;28;20380;-71
2024/02/22 05:20:18;;;;;;;;;;;16.40;71.80;;;;;;5034335;28;20375;-71
2024/02/22 05:22:44;;;;;;;;;;;16.40;72.00;;;;;;5034179;28;20390;-71
2024/02/22 05:25:09;;;;;;;;;;;16.40;72.10;;;;;;5034178;28;19913;-71
2024/02/22 05:27:35;;;;;;;;;;;16.40;71.60;;;;;;5034190;28;19916;-71
2024/02/22 05:30:00;;;;;;;;;;;16.40;71.80;;;;;;5034111;28;20364;-71
2024/02/22 05:32:26;;;;;;;;;;;16.40;71.50;;;;;;5034081;28;19916;-71
2024/02/22 05:34:52;;;;;;;;;;;16.40;71.90;;;;;;5033990;28;19913;-71
2024/02/22 05:37:17;;;;;;;;;;;16.40;71.80;;;;;;5033825;28;20382;-71
2024/02/22 05:39:43;;;;;;;;;;;16.40;71.90;;;;;;5033496;28;19988;-71
2024/02/22 05:42:08;;;;;;;;;;;16.40;71.90;;;;;;5033902;28;19909;-72
2024/02/22 05:44:34;;;;;;;;;;;16.60;72.20;;;;;;5033862;28;19917;-71
2024/02/22 05:46:59;;;;;;;;;;;16.40;71.20;;;;;;5034207;28;19917;-71
2024/02/22 05:49:25;;;;;;;;;;;16.40;72.00;;;;;;5033824;28;19916;-71
2024/02/22 05:51:50;;;;;;;;;;;16.10;71.60;;;;;;5033750;28;20011;-71
2024/02/22 05:54:17;;;;;;;;;;;16.50;72.10;;;;;;5033680;28;19909;-71
2024/02/22 05:56:42;;;;;;;;;;;16.50;72.10;;;;;;5033854;28;19909;-71
2024/02/22 05:59:08;;;;;;;;;;;16.40;72.20;;;;;;5033974;28;19916;-71
2024/02/22 06:01:33;;;;;;;;;;;16.40;71.40;;;;;;5033510;28;19952;-71
2024/02/22 06:03:59;;;;;;;;;;;16.40;72.10;;;;;;5033357;28;19921;-71
2024/02/22 06:06:24;;;;;;;;;;;16.70;73.00;;;;;;5033713;28;19909;-71
2024/02/22 06:08:50;;;;;;;;;;;16.40;72.30;;;;;;5033342;28;20294;-71
2024/02/22 06:11:17;;;;;;;;;;;16.40;72.00;;;;;;5033405;28;19936;-71
2024/02/22 06:13:43;;;;;;;;;;;16.40;72.10;;;;;;5033393;28;20371;-71
2024/02/22 06:16:08;;;;;;;;;;;16.50;71.60;;;;;;5033715;28;19916;-75
2024/02/22 06:18:34;;;;;;;;;;;16.50;72.20;;;;;;5033054;28;19944;-75
2024/02/22 06:20:59;;;;;;;;;;;16.40;72.10;;;;;;5033034;28;20287;-75
2024/02/22 06:23:25;;;;;;;;;;;16.40;72.20;;;;;;5033032;28;19955;-75
2024/02/22 06:25:51;;;;;;;;;;;16.40;72.20;;;;;;5033075;28;19909;-80
2024/02/22 06:28:16;;;;;;;;;;;16.40;71.70;;;;;;5033300;28;20264;-75
2024/02/22 06:30:42;;;;;;;;;;;16.40;72.20;;;;;;5033161;28;19910;-76
2024/02/22 06:33:08;;;;;;;;;;;16.50;72.00;;;;;;5032888;28;20402;-75
2024/02/22 06:35:33;;;;;;;;;;;16.40;72.00;;;;;;5032821;28;19917;-76
2024/02/22 06:37:59;;;;;;;;;;;16.40;72.00;;;;;;5032828;28;20394;-76
2024/02/22 06:40:25;;;;;;;;;;;16.40;71.70;;;;;;5033032;28;19909;-76
2024/02/22 06:42:50;;;;;;;;;;;16.50;72.20;;;;;;5032985;28;19909;-76
2024/02/22 06:45:21;;;;;;;;;;;16.50;71.50;;;;;;5033417;28;19909;-76
2024/02/22 06:47:47;;;;;;;;;;;16.50;71.10;;;;;;5033029;28;19916;-78
2024/02/22 06:50:12;;;;;;;;;;;16.50;72.00;;;;;;5031652;28;19909;-77
2024/02/22 06:52:38;;;;;;;;;;;16.40;71.80;;;;;;5032621;28;20287;-73
2024/02/22 06:55:03;;;;;;;;;;;16.60;72.00;;;;;;5032597;28;19956;-75
2024/02/22 06:57:29;;;;;;;;;;;16.50;72.00;;;;;;5032483;28;19917;-73
2024/02/22 06:59:54;;;;;;;;;;;16.40;72.00;;;;;;5032418;28;19956;-74
2024/02/22 07:02:20;;;;;;;;;;;16.40;71.40;;;;;;5032187;28;19944;-74
2024/02/22 07:04:45;;;;;;;;;;;16.50;71.60;;;;;;5032733;28;19995;-74
2024/02/22 07:07:11;;;;;;;;;;;16.50;71.90;;;;;;5032352;28;19913;-76
2024/02/22 07:09:38;;;;;;;;;;;16.50;71.60;;;;;;5032334;28;19916;-75
2024/02/22 07:12:04;;;;;;;;;;;16.50;71.40;;;;;;5032903;28;19909;-75
2024/02/22 07:14:29;;;;;;;;;;;16.50;71.20;;;;;;5032350;28;19909;-75
2024/02/22 07:16:55;;;;;;;;;;;16.50;71.60;;;;;;5032088;28;19910;-77
2024/02/22 07:19:21;;;;;;;;;;;16.50;71.80;;;;;;5032185;28;19909;-76
2024/02/22 07:21:46;;;;;;;;;;;16.70;71.70;;;;;;5032320;28;19909;-76
2024/02/22 07:24:12;;;;;;;;;;;16.50;71.50;;;;;;5032632;28;19917;-77
2024/02/22 07:26:38;;;;;;;;;;;16.50;71.60;;;;;;5032304;28;19932;-77
2024/02/22 07:29:04;;;;;;;;;;;16.50;71.70;;;;;;5032213;28;19948;-77
2024/02/22 07:31:30;;;;;;;;;;;16.50;71.40;;;;;;5032518;28;20241;-77
2024/02/22 07:33:55;;;;;;;;;;;16.60;71.60;;;;;;5032192;28;19909;-77
2024/02/22 07:36:21;;;;;;;;;;;16.50;71.50;;;;;;5032140;28;19953;-77
2024/02/22 07:38:47;;;;;;;;;;;16.50;71.40;;;;;;5032187;28;19917;-78
2024/02/22 07:41:15;;;;;;;;;;;16.50;71.00;;;;;;5032626;28;19909;-76
2024/02/22 07:43:41;;;;;;;;;;;16.40;71.40;;;;;;5032224;28;19944;-76
2024/02/22 07:46:07;;;;;;;;;;;16.40;71.20;;;;;;5032411;28;19921;-76
2024/02/22 07:48:33;;;;;;;;;;;16.40;71.40;;;;;;5032107;28;19910;-76
2024/02/22 07:50:59;;;;;;;;;;;16.50;71.60;;;;;;5032079;28;19996;-76
2024/02/22 07:53:24;;;;;;;;;;;16.50;71.20;;;;;;5032164;28;19916;-72
2024/02/22 07:55:50;;;;;;;;;;;16.40;71.40;;;;;;5031950;28;20403;-72
2024/02/22 07:58:17;;;;;;;;;;;16.40;71.30;;;;;;5031856;28;19917;-72
2024/02/22 08:00:43;;;;;;;;;;;16.40;71.20;;;;;;5032072;28;19916;-72
2024/02/22 08:03:09;;;;;;;;;;;16.40;70.80;;;;;;5035407;28;19921;-72
2024/02/22 08:05:34;;;;;;;;;;;16.70;71.30;;;;;;5035583;28;19909;-72
2024/02/22 08:08:00;;;;;;;;;;;16.40;71.10;;;;;;5035672;28;20290;-72
2024/02/22 08:10:26;;;;;;;;;;;16.50;71.10;;;;;;5035950;28;19909;-72
2024/02/22 08:12:52;;;;;;;;;;;16.40;71.30;;;;;;5035797;28;19913;-72
2024/02/22 08:15:18;;;;;;;;;;;16.50;70.60;;;;;;5035500;28;20279;-72
2024/02/22 08:17:44;;;;;;;;;;;16.50;70.80;;;;;;5035405;28;20044;-73
2024/02/22 08:20:11;;;;;;;;;;;16.40;71.10;;;;;;5035454;28;19916;-72
2024/02/22 08:22:36;;;;;;;;;;;16.40;70.40;;;;;;5035660;28;19932;-71
2024/02/22 08:25:02;;;;;;;;;;;16.40;71.20;;;;;;5035350;28;20387;-72
2024/02/22 08:27:27;;;;;;;;;;;16.30;71.00;;;;;;5035184;28;19956;-72
2024/02/22 08:29:53;;;;;;;;;;;16.30;71.00;;;;;;5035168;28;19916;-72
2024/02/22 08:32:18;;;;;;;;;;;16.40;71.00;;;;;;5035255;28;19909;-73
2024/02/22 08:34:44;;;;;;;;;;;16.40;71.10;;;;;;5035137;28;19909;-72
2024/02/22 08:37:09;;;;;;;;;;;16.40;71.30;;;;;;5035069;28;19920;-73
2024/02/22 08:39:35;;;;;;;;;;;16.40;71.00;;;;;;5035044;28;19967;-73
2024/02/22 08:42:01;;;;;;;;;;;16.40;70.70;;;;;;5035202;28;19913;-74
2024/02/22 08:44:28;;;;;;;;;;;16.40;71.10;;;;;;5035051;28;19920;-74
2024/02/22 08:46:53;;;;;;;;;;;16.40;70.90;;;;;;5035805;28;20360;-73
2024/02/22 08:49:19;;;;;;;;;;;16.50;71.20;;;;;;5035005;28;19955;-73
2024/02/22 08:51:45;;;;;;;;;;;16.30;71.00;;;;;;5034862;28;19909;-73
2024/02/22 08:54:10;;;;;;;;;;;16.40;70.30;;;;;;5034863;28;19910;-74
2024/02/22 08:56:35;;;;;;;;;;;16.40;71.10;;;;;;5034790;28;19909;-74
2024/02/22 08:59:01;;;;;;;;;;;16.40;71.00;;;;;;5034846;28;19921;-73
2024/02/22 09:01:27;;;;;;;;;;;16.40;70.60;;;;;;5034716;28;20014;-72
2024/02/22 09:03:52;;;;;;;;;;;16.40;71.20;;;;;;5034371;28;19921;-72
2024/02/22 09:06:18;;;;;;;;;;;16.50;70.90;;;;;;5034632;28;20376;-72
2024/02/22 09:08:44;;;;;;;;;;;16.30;71.10;;;;;;5034860;28;19909;-72
2024/02/22 09:11:09;;;;;;;;;;;16.40;71.00;;;;;;5034468;28;19933;-72
2024/02/22 09:13:35;;;;;;;;;;;16.50;71.80;;;;;;5033480;28;19909;-72
2024/02/22 09:16:01;;;;;;;;;;;16.40;71.00;;;;;;5034508;28;19909;-72
2024/02/22 09:18:27;;;;;;;;;;;16.40;70.90;;;;;;5034345;28;19944;-72
2024/02/22 09:20:52;;;;;;;;;;;16.50;71.10;;;;;;5034319;28;19909;-72
2024/02/22 09:23:19;;;;;;;;;;;16.30;70.90;;;;;;5034304;28;20268;-72
2024/02/22 09:25:46;;;;;;;;;;;16.40;70.70;;;;;;5034306;28;20334;-72
2024/02/22 09:28:11;;;;;;;;;;;16.50;70.90;;;;;;5034235;28;20033;-72
2024/02/22 09:30:37;;;;;;;;;;;16.40;70.90;;;;;;5034245;28;19979;-72
2024/02/22 09:33:03;;;;;;;;;;;16.40;71.00;;;;;;5034057;28;19909;-72
2024/02/22 09:35:29;;;;;;;;;;;16.40;70.20;;;;;;5034462;28;19916;-72
2024/02/22 09:37:54;;;;;;;;;;;16.50;71.00;;;;;;5033976;28;20383;-72
2024/02/22 09:40:21;;;;;;;;;;;16.50;70.80;;;;;;5033946;28;19916;-72
2024/02/22 09:42:50;;;;;;;;;;;16.50;70.90;;;;;;5033840;28;20413;-72
2024/02/22 09:45:16;;;;;;;;;;;16.60;66.50;;;;;;5033832;28;20406;-72
2024/02/22 09:47:44;;;;;;;;;;;16.60;70.40;;;;;;5033874;28;19948;-72
2024/02/22 09:50:10;;;;;;;;;;;16.50;70.80;;;;;;5033792;28;19949;-71
2024/02/22 09:52:38;;;;;;;;;;;16.60;70.80;;;;;;5034270;28;20383;-72
2024/02/22 09:55:04;;;;;;;;;;;16.50;66.70;;;;;;5033684;28;19909;-72
2024/02/22 09:57:30;;;;;;;;;;;16.60;69.80;;;;;;5033844;28;19987;-73
2024/02/22 09:59:56;;;;;;;;;;;16.50;71.00;;;;;;5033596;28;20379;-72
2024/02/22 10:02:22;;;;;;;;;;;16.50;70.70;;;;;;5033568;28;19913;-72
2024/02/22 10:04:56;;;;;;;;;;;16.60;71.30;;;;;;5033825;28;19917;-75
2024/02/22 10:07:30;;;;;;;;;;;16.50;66.80;;;;;;5033474;28;20395;-75
2024/02/22 10:09:56;;;;;;;;;;;16.40;66.90;;;;;;5033435;28;20399;-75
2024/02/22 10:12:27;;;;;;;;;;;16.60;71.20;;;;;;5033414;28;20044;-75
2024/02/22 10:14:52;;;;;;;;;;;16.50;71.60;;;;;;5033569;28;19920;-75
2024/02/22 10:17:25;;;;;;;;;;;16.40;71.40;;;;;;5033488;28;20291;-75
2024/02/22 10:19:54;;;;;;;;;;;16.50;67.20;;;;;;5033819;28;19956;-75
2024/02/22 10:22:23;;;;;;;;;;;16.50;71.50;;;;;;5033240;28;19916;-75
2024/02/22 10:24:48;;;;;;;;;;;16.50;67.30;;;;;;5032992;28;19909;-75
2024/02/22 10:27:13;;;;;;;;;;;16.30;71.40;;;;;;5033136;28;19963;-75
2024/02/22 10:29:39;;;;;;;;;;;16.60;71.60;;;;;;5033058;28;20283;-75
2024/02/22 10:32:05;;;;;;;;;;;16.30;71.50;;;;;;5015369;28;19909;-75
2024/02/22 10:34:31;;;;;;;;;;;16.50;71.10;;;;;;5033230;28;19909;-75
2024/02/22 10:36:57;;;;;;;;;;;16.40;71.80;;;;;;5032874;28;19909;-75
2024/02/22 10:39:24;;;;;;;;;;;16.40;71.60;;;;;;5032843;28;20399;-75
2024/02/22 10:41:50;;;;;;;;;;;16.50;71.90;;;;;;5032903;28;20014;-75
2024/02/22 10:44:16;;;;;;;;;;;16.50;71.70;;;;;;5032818;28;19909;-75
2024/02/22 10:46:42;;;;;;;;;;;16.80;71.90;;;;;;5033127;28;19935;-74
2024/02/22 10:49:12;;;;;;;;;;;16.50;71.80;;;;;;5033067;28;19909;-75
2024/02/22 10:51:38;;;;;;;;;;;16.40;71.80;;;;;;5033039;28;19956;-75
2024/02/22 10:54:07;;;;;;;;;;;16.40;72.00;;;;;;5015395;28;19909;-75
2024/02/22 10:56:33;;;;;;;;;;;16.50;71.80;;;;;;5015420;28;19909;-75
2024/02/22 10:59:01;;;;;;;;;;;16.50;72.80;;;;;;5032893;28;20064;-75
2024/02/22 11:01:28;;;;;;;;;;;16.50;71.40;;;;;;5032885;28;20327;-75
2024/02/22 11:03:54;;;;;;;;;;;16.50;72.00;;;;;;5032465;28;20387;-75
2024/02/22 11:06:20;;;;;;;;;;;16.60;72.10;;;;;;5032874;28;19963;-75
2024/02/22 11:08:47;;;;;;;;;;;16.50;71.40;;;;;;5032585;28;19909;-75
2024/02/22 11:11:23;;;;;;;;;;;16.40;72.10;;;;;;5032581;28;19909;-75
2024/02/22 11:13:59;;;;;;;;;;;16.50;72.20;;;;;;5032757;28;20342;-75
2024/02/22 11:16:32;;;;;;;;;;;16.80;67.80;;;;;;5032297;28;20505;-75
2024/02/22 11:19:09;;;;;;;;;;;16.50;71.60;;;;;;5032512;28;19971;-75
2024/02/22 11:21:44;;;;;;;;;;;16.60;71.60;;;;;;5014666;28;19963;-78
2024/02/22 11:24:11;;;;;;;;;;;16.50;72.00;;;;;;5032508;28;19909;-80
2024/02/22 11:26:38;;;;;;;;;;;16.50;71.80;;;;;;5033113;28;20322;-78
2024/02/22 11:29:03;;;;;;;;;;;16.60;72.10;;;;;;5032519;28;19992;-79
2024/02/22 11:31:29;;;;;;;;;;;16.40;71.80;;;;;;5032210;28;20402;-76
2024/02/22 11:33:58;;;;;;;;;;;16.50;72.10;;;;;;5032322;28;20035;-77
2024/02/22 11:36:24;;;;;;;;;;;16.50;67.70;;;;;;5033697;28;20030;-78
2024/02/22 11:38:59;;;;;;;;;;;16.50;72.10;;;;;;5036278;28;19924;-76
2024/02/22 11:41:27;;;;;;;;;;;16.50;67.80;;;;;;5036218;28;20123;-81
2024/02/22 11:44:00;;;;;;;;;;;16.50;72.20;;;;;;5036265;28;19917;-78
2024/02/22 11:46:25;;;;;;;;;;;16.50;72.30;;;;;;5036095;28;19920;-76
2024/02/22 11:48:51;;;;;;;;;;;16.50;72.60;;;;;;5036221;28;19917;-74
2024/02/22 11:51:16;;;;;;;;;;;16.60;72.20;;;;;;5035927;28;19909;-77
2024/02/22 11:53:50;;;;;;;;;;;16.60;71.80;;;;;;5036300;28;19909;-76
2024/02/22 11:56:16;;;;;;;;;;;16.60;72.30;;;;;;5035784;28;19916;-76
2024/02/22 11:58:41;;;;;;;;;;;16.60;72.10;;;;;;5036011;28;19921;-76
2024/02/22 12:01:07;;;;;;;;;;;16.60;72.20;;;;;;5035768;28;20004;-76
2024/02/22 12:03:32;;;;;;;;;;;16.60;71.80;;;;;;5035453;28;19921;-76
2024/02/22 12:06:06;;;;;;;;;;;16.60;72.20;;;;;;5036134;28;19909;-77
2024/02/22 12:08:32;;;;;;;;;;;16.50;71.90;;;;;;5035911;28;19913;-76
2024/02/22 12:10:58;;;;;;;;;;;16.50;72.30;;;;;;5035736;28;20383;-76
2024/02/22 12:13:24;;;;;;;;;;;16.60;72.30;;;;;;5035535;28;20411;-76
2024/02/22 12:16:02;;;;;;;;;;;16.60;72.20;;;;;;5035529;28;19948;-76
2024/02/22 12:18:28;;;;;;;;;;;16.50;72.40;;;;;;5035415;28;19943;-76
2024/02/22 12:20:55;;;;;;;;;;;16.60;72.20;;;;;;5035425;28;19996;-76
2024/02/22 12:23:21;;;;;;;;;;;16.40;72.40;;;;;;5035837;28;19967;-76
2024/02/22 12:25:50;;;;;;;;;;;16.50;72.60;;;;;;5035362;28;19909;-76
2024/02/22 12:28:16;;;;;;;;;;;16.60;67.90;;;;;;5035604;28;20249;-76
2024/02/22 12:30:43;;;;;;;;;;;16.60;72.30;;;;;;5035360;28;19921;-76
2024/02/22 12:33:20;;;;;;;;;;;16.60;71.90;;;;;;5035374;28;19909;-76
2024/02/22 12:35:46;;;;;;;;;;;16.60;72.30;;;;;;5035182;28;19987;-77
2024/02/22 12:38:11;;;;;;;;;;;16.60;72.20;;;;;;5035122;28;20019;-76
2024/02/22 12:40:36;;;;;;;;;;;16.60;72.40;;;;;;5034985;28;19916;-77
2024/02/22 12:43:02;;;;;;;;;;;16.60;72.40;;;;;;5034988;28;19909;-76
2024/02/22 12:45:28;;;;;;;;;;;16.60;72.20;;;;;;5035021;28;19909;-76
2024/02/22 12:47:53;;;;;;;;;;;16.60;72.30;;;;;;5034862;28;19916;-77
2024/02/22 12:50:20;;;;;;;;;;;16.50;72.30;;;;;;5034886;28;19988;-77
2024/02/22 12:52:46;;;;;;;;;;;16.60;72.60;;;;;;5017120;28;20528;-76
2024/02/22 12:55:11;;;;;;;;;;;16.50;72.40;;;;;;5034919;28;19917;-76
2024/02/22 12:57:37;;;;;;;;;;;16.60;72.30;;;;;;5034748;28;19964;-77
2024/02/22 13:00:03;;;;;;;;;;;16.60;72.30;;;;;;5034702;28;19909;-76
2024/02/22 13:02:29;;;;;;;;;;;16.70;72.30;;;;;;5034448;28;20482;-76
2024/02/22 13:04:55;;;;;;;;;;;16.60;72.60;;;;;;5034841;28;19909;-76
2024/02/22 13:07:22;;;;;;;;;;;16.60;72.50;;;;;;5016838;28;20399;-76
2024/02/22 13:09:48;;;;;;;;;;;16.60;72.40;;;;;;5035196;28;20367;-72
2024/02/22 13:12:14;;;;;;;;;;;16.60;72.60;;;;;;5034507;28;19956;-72
2024/02/22 13:14:40;;;;;;;;;;;16.50;72.20;;;;;;5034743;28;20000;-72
2024/02/22 13:17:06;;;;;;;;;;;16.60;72.60;;;;;;5034586;28;19998;-72
2024/02/22 13:19:32;;;;;;;;;;;16.60;72.50;;;;;;5034649;28;20383;-72
2024/02/22 13:21:59;;;;;;;;;;;16.70;72.40;;;;;;5034355;28;20295;-72
2024/02/22 13:24:24;;;;;;;;;;;16.60;72.60;;;;;;5034361;28;20290;-72
2024/02/22 13:26:50;;;;;;;;;;;16.60;72.30;;;;;;5034161;28;19999;-72
2024/02/22 13:29:15;;;;;;;;;;;16.60;72.90;;;;;;5034539;28;19916;-71
2024/02/22 13:31:41;;;;;;;;;;;16.70;72.80;;;;;;5034211;28;19913;-72
2024/02/22 13:34:06;;;;;;;;;;;16.80;72.80;;;;;;5034160;28;19956;-72
2024/02/22 13:36:34;;;;;;;;;;;16.60;72.90;;;;;;5034108;28;20291;-72
2024/02/22 13:38:59;;;;;;;;;;;16.60;72.70;;;;;;5034225;28;19991;-72
2024/02/22 13:41:26;;;;;;;;;;;16.70;73.10;;;;;;5016315;28;19909;-73
2024/02/22 13:43:51;;;;;;;;;;;16.60;72.80;;;;;;5033980;28;19913;-72
2024/02/22 13:46:17;;;;;;;;;;;16.70;72.90;;;;;;5033916;28;19916;-72
2024/02/22 13:48:42;;;;;;;;;;;16.70;72.90;;;;;;5033888;28;19909;-72
2024/02/22 13:51:08;;;;;;;;;;;16.70;72.90;;;;;;5033763;28;19916;-72
2024/02/22 13:53:35;;;;;;;;;;;16.70;72.90;;;;;;5034007;28;19959;-72
2024/02/22 13:56:01;;;;;;;;;;;16.60;72.80;;;;;;5033689;28;20003;-72
2024/02/22 13:58:26;;;;;;;;;;;16.80;73.20;;;;;;5033339;28;20059;-72
2024/02/22 14:00:52;;;;;;;;;;;16.80;73.00;;;;;;5033607;28;19920;-73
2024/02/22 14:03:17;;;;;;;;;;;16.60;72.70;;;;;;5033239;28;19921;-71
2024/02/22 14:05:43;;;;;;;;;;;16.70;72.50;;;;;;5033437;28;19909;-72
2024/02/22 14:08:09;;;;;;;;;;;16.70;73.10;;;;;;5033482;28;20006;-72
2024/02/22 14:10:36;;;;;;;;;;;16.70;73.40;;;;;;5033400;28;19910;-73